Mehama, Oregon
Current Conditions -  °F | °C
As of 10:56 PM on Thursday 30 Oct 2014 (Local Time) from KSLE Reporting Station
Light Rain Light Rain  
Wind Chill: 14°   Ceiling: 900
Heat Index: 14°   Visibility: 4mi
Dew Point: 13°   Wind: 6mph
Humidity: 90%   Direction: 250°WSW
Pressure: 29.77"   Gusts: NA
Location:  44.79°N, 122.62°W
Report Text: KSLE 310556Z AUTO 25005KT 4SM -RA BR SCT006 BKN009 OVC016 14/13 A2977 RMK AO2 CIG 008V012 SLP082 P0012 60043 T01440128 10156 20144 56005
Loading
Personal Weather Stations






























Interactive Weather Map
Tropical Storm Tracking
New forecast layout! Learn more

10-Day Weather Forecast

Advertisements
Track Severe Weather on mobile